createdAt,value
2023-05-22T00:01:58.122Z,13.69
2023-05-22T00:05:01.484Z,13.66
2023-05-22T00:08:06.573Z,13.65
2023-05-22T00:11:09.906Z,13.57
2023-05-22T00:14:32.777Z,13.58
2023-05-22T00:17:36.597Z,13.42
2023-05-22T00:20:40.989Z,13.41
2023-05-22T00:23:46.104Z,13.36
2023-05-22T00:26:49.401Z,13.28
2023-05-22T00:29:52.550Z,13.34
2023-05-22T00:32:56.712Z,13.42
2023-05-22T00:35:59.865Z,13.67
2023-05-22T00:39:04.728Z,13.23
2023-05-22T00:42:08.044Z,13.13
2023-05-22T00:45:12.528Z,13.09
2023-05-22T00:48:16.546Z,13.07
2023-05-22T00:51:21.290Z,13.06
2023-05-22T00:54:25.881Z,13.06
2023-05-22T00:57:29.184Z,12.89
2023-05-22T01:00:34.093Z,12.97
2023-05-22T01:03:42.395Z,13.09
2023-05-22T01:06:47.718Z,13.00
2023-05-22T01:09:53.295Z,12.92
2023-05-22T01:13:05.462Z,12.66
2023-05-22T01:16:19.198Z,12.83
2023-05-22T01:19:47.379Z,12.52
2023-05-22T01:23:17.807Z,12.60
2023-05-22T01:26:41.884Z,12.55
2023-05-22T01:29:49.298Z,12.64
2023-05-22T01:32:57.912Z,12.51
2023-05-22T01:36:03.381Z,12.41
2023-05-22T01:39:07.699Z,12.49
2023-05-22T01:42:11.356Z,12.49
2023-05-22T01:45:15.608Z,12.49
2023-05-22T01:48:20.570Z,12.62
2023-05-22T01:51:34.503Z,12.47
2023-05-22T01:54:43.472Z,12.35
2023-05-22T01:57:52.445Z,12.33
2023-05-22T02:00:57.454Z,12.38
2023-05-22T02:04:03.019Z,12.34
2023-05-22T02:07:08.293Z,12.14
2023-05-22T02:10:13.541Z,12.09
2023-05-22T02:13:16.888Z,12.14
2023-05-22T02:16:22.163Z,12.01
2023-05-22T02:19:26.954Z,11.90
2023-05-22T02:22:30.097Z,11.86
2023-05-22T02:25:33.752Z,12.03
2023-05-22T02:28:36.996Z,11.88
2023-05-22T02:31:40.577Z,11.95
2023-05-22T02:34:45.262Z,11.88
2023-05-22T02:37:50.946Z,11.93
2023-05-22T02:40:55.023Z,12.05
2023-05-22T02:43:58.541Z,11.76
2023-05-22T02:47:01.896Z,11.88
2023-05-22T02:50:08.448Z,11.64
2023-05-22T02:53:13.049Z,12.05
2023-05-22T02:56:16.819Z,11.61
2023-05-22T02:59:36.768Z,11.53
2023-05-22T03:02:40.099Z,11.50
2023-05-22T03:05:46.944Z,11.50
2023-05-22T03:08:50.818Z,11.51
2023-05-22T03:11:54.056Z,11.51
2023-05-22T03:14:57.537Z,11.38
2023-05-22T03:18:00.922Z,11.40
2023-05-22T03:21:06.598Z,11.49
2023-05-22T03:24:10.027Z,11.43
2023-05-22T03:27:16.321Z,11.40
2023-05-22T03:30:19.932Z,11.34
2023-05-22T03:34:34.492Z,11.30
2023-05-22T03:37:38.631Z,11.49
2023-05-22T03:40:42.042Z,11.44
2023-05-22T03:43:46.975Z,11.30
2023-05-22T03:46:50.451Z,11.35
2023-05-22T03:49:55.023Z,11.32
2023-05-22T03:52:58.940Z,11.35
2023-05-22T03:56:02.210Z,11.32
2023-05-22T03:59:25.149Z,11.34
2023-05-22T04:02:30.206Z,11.38
2023-05-22T04:05:35.241Z,11.27
2023-05-22T04:08:38.730Z,11.29
2023-05-22T04:11:42.679Z,11.35
2023-05-22T04:14:46.290Z,11.61
2023-05-22T04:17:50.849Z,11.57
2023-05-22T04:20:55.679Z,11.63
2023-05-22T04:23:58.848Z,11.51
2023-05-22T04:27:02.367Z,11.61
2023-05-22T04:30:07.305Z,11.70
2023-05-22T04:33:10.563Z,11.91
2023-05-22T04:36:15.114Z,11.98
2023-05-22T04:39:18.321Z,11.97
2023-05-22T04:42:22.546Z,12.40
2023-05-22T04:45:25.836Z,12.16
2023-05-22T04:48:29.250Z,12.18
2023-05-22T04:51:34.908Z,12.63
2023-05-22T04:54:38.509Z,12.56
2023-05-22T04:57:44.555Z,13.01
2023-05-22T05:00:47.838Z,13.05
2023-05-22T05:03:51.199Z,13.10
2023-05-22T05:06:57.517Z,13.14
2023-05-22T05:10:00.974Z,13.22
2023-05-22T05:13:04.347Z,13.51
2023-05-22T05:16:12.190Z,13.70
2023-05-22T05:19:16.645Z,13.90
2023-05-22T05:22:21.202Z,13.89
2023-05-22T05:25:24.458Z,13.86
2023-05-22T05:28:27.832Z,14.19
2023-05-22T05:31:32.895Z,14.29
2023-05-22T05:34:46.975Z,14.50
2023-05-22T05:38:01.705Z,14.59
2023-05-22T05:41:06.089Z,15.02
2023-05-22T05:44:30.436Z,15.12
2023-05-22T05:47:34.769Z,15.24
2023-05-22T05:50:39.158Z,15.45
2023-05-22T05:53:44.021Z,15.71
2023-05-22T05:56:47.745Z,16.14
2023-05-22T05:59:51.176Z,16.29
2023-05-22T06:03:29.782Z,16.58
2023-05-22T06:06:44.274Z,17.10
2023-05-22T06:09:49.366Z,17.19
2023-05-22T06:12:57.956Z,17.26
2023-05-22T06:16:04.823Z,17.43
2023-05-22T06:19:10.851Z,17.61
2023-05-22T06:22:14.498Z,17.88
2023-05-22T06:25:21.400Z,17.88
2023-05-22T06:28:26.292Z,18.07
2023-05-22T06:31:29.653Z,18.29
2023-05-22T06:34:34.666Z,18.17
2023-05-22T06:37:38.972Z,18.38
2023-05-22T06:40:44.344Z,18.36
2023-05-22T06:43:59.840Z,19.15
2023-05-22T06:47:06.238Z,19.90
2023-05-22T06:50:11.249Z,19.20
2023-05-22T06:53:14.763Z,19.66
2023-05-22T06:56:19.574Z,19.79
2023-05-22T06:59:39.490Z,20.30
2023-05-22T07:02:42.761Z,20.11
2023-05-22T07:05:59.463Z,19.76
2023-05-22T07:09:03.422Z,19.80
2023-05-22T07:12:09.604Z,20.22
2023-05-22T07:15:14.468Z,20.57
2023-05-22T07:18:23.668Z,20.51
2023-05-22T07:21:30.192Z,20.75
2023-05-22T07:24:33.921Z,20.96
2023-05-22T07:27:38.938Z,20.39
2023-05-22T07:30:43.011Z,21.06
2023-05-22T07:33:46.352Z,21.26
2023-05-22T07:36:50.857Z,21.06
2023-05-22T07:39:54.192Z,21.53
2023-05-22T07:43:01.146Z,21.64
2023-05-22T07:46:06.106Z,21.55
2023-05-22T07:49:19.503Z,21.31
2023-05-22T07:52:23.866Z,22.30
2023-05-22T07:55:28.584Z,22.02
2023-05-22T07:58:34.604Z,22.28
2023-05-22T08:01:38.635Z,21.89
2023-05-22T08:04:42.155Z,21.91
2023-05-22T08:07:46.356Z,22.34
2023-05-22T08:11:03.058Z,22.29
2023-05-22T08:14:28.237Z,22.40
2023-05-22T08:17:31.632Z,23.30
2023-05-22T08:20:35.036Z,23.11
2023-05-22T08:23:38.585Z,22.97
2023-05-22T08:26:43.670Z,23.09
2023-05-22T08:29:48.174Z,23.37
2023-05-22T08:32:51.440Z,23.23
2023-05-22T08:35:54.901Z,23.77
2023-05-22T08:38:58.393Z,23.57
2023-05-22T08:42:03.288Z,23.88
2023-05-22T08:45:09.851Z,24.04
2023-05-22T08:48:14.669Z,24.09
2023-05-22T08:51:20.545Z,24.66
2023-05-22T08:54:27.516Z,24.20
2023-05-22T08:57:31.240Z,24.46
2023-05-22T09:00:35.983Z,24.14
2023-05-22T09:03:39.859Z,23.95
2023-05-22T09:06:43.394Z,23.91
2023-05-22T09:09:46.545Z,24.69
2023-05-22T09:13:01.525Z,24.34
2023-05-22T09:16:10.802Z,24.52
2023-05-22T09:19:14.736Z,24.86
2023-05-22T09:22:18.132Z,24.92
2023-05-22T09:25:22.501Z,24.70
2023-05-22T09:28:26.541Z,24.96
2023-05-22T09:34:35.545Z,24.96
2023-05-22T09:37:39.003Z,24.10
2023-05-22T09:40:43.055Z,25.02
2023-05-22T09:43:51.277Z,24.73
2023-05-22T09:46:55.805Z,24.92
2023-05-22T09:50:04.004Z,25.17
2023-05-22T09:53:07.706Z,25.44
2023-05-22T09:56:15.940Z,25.53
2023-05-22T09:59:23.495Z,25.76
2023-05-22T10:02:28.759Z,25.30
2023-05-22T10:05:33.984Z,25.86
2023-05-22T10:08:43.352Z,25.20
2023-05-22T10:11:47.405Z,25.28
2023-05-22T10:14:50.958Z,24.71
2023-05-22T10:17:54.240Z,25.15
2023-05-22T10:21:02.478Z,25.45
2023-05-22T10:24:07.031Z,25.63
2023-05-22T10:27:10.030Z,26.47
2023-05-22T10:30:24.697Z,25.91
2023-05-22T10:33:51.909Z,26.12
2023-05-22T10:37:18.588Z,26.02
2023-05-22T10:40:30.445Z,25.67
2023-05-22T10:43:34.003Z,25.97
2023-05-22T10:46:37.473Z,26.36
2023-05-22T10:49:45.118Z,25.91
2023-05-22T10:52:49.677Z,26.28
2023-05-22T10:55:54.318Z,26.74
2023-05-22T10:58:59.378Z,25.74
2023-05-22T11:02:02.644Z,26.05
2023-05-22T11:05:35.173Z,26.30
2023-05-22T11:08:41.960Z,26.47
2023-05-22T11:11:45.371Z,26.14
2023-05-22T11:14:50.922Z,25.82
2023-05-22T11:17:56.607Z,26.33
2023-05-22T11:21:00.708Z,26.59
2023-05-22T11:24:08.919Z,25.92
2023-05-22T11:27:12.294Z,26.32
2023-05-22T11:30:16.562Z,26.42
2023-05-22T11:33:20.262Z,26.74
2023-05-22T11:36:24.701Z,26.42
2023-05-22T11:39:30.048Z,27.08
2023-05-22T11:42:33.633Z,26.76
2023-05-22T11:45:38.172Z,27.35
2023-05-22T11:48:42.386Z,26.94
2023-05-22T11:51:45.888Z,27.11
2023-05-22T11:54:52.744Z,26.71
2023-05-22T11:57:56.521Z,26.41
2023-05-22T12:01:04.172Z,26.01
2023-05-22T12:04:07.427Z,27.05
2023-05-22T12:07:13.229Z,27.11
2023-05-22T12:10:17.807Z,26.59
2023-05-22T12:13:26.412Z,26.34
2023-05-22T12:16:34.711Z,26.57
2023-05-22T12:19:41.105Z,27.06
2023-05-22T12:22:44.854Z,27.63
2023-05-22T12:25:57.570Z,27.27
2023-05-22T12:29:01.129Z,27.45
2023-05-22T12:32:08.546Z,26.97
2023-05-22T12:35:16.432Z,27.06
2023-05-22T12:38:21.994Z,26.42
2023-05-22T12:41:26.521Z,26.81
2023-05-22T12:44:29.916Z,27.21
2023-05-22T12:47:35.123Z,27.58
2023-05-22T12:50:41.564Z,26.72
2023-05-22T12:53:45.085Z,27.13
2023-05-22T12:56:49.601Z,26.91
2023-05-22T12:59:52.865Z,27.34
2023-05-22T13:02:56.267Z,27.19
2023-05-22T13:06:00.229Z,26.91
2023-05-22T13:09:03.536Z,26.67
2023-05-22T13:12:10.427Z,27.10
2023-05-22T13:15:15.305Z,27.09
2023-05-22T13:18:18.624Z,27.13
2023-05-22T13:21:22.857Z,26.77
2023-05-22T13:24:26.901Z,26.77
2023-05-22T13:27:33.534Z,27.52
2023-05-22T13:30:37.074Z,27.64
2023-05-22T13:33:40.207Z,27.46
2023-05-22T13:36:43.505Z,27.21
2023-05-22T13:39:46.791Z,27.24
2023-05-22T13:42:52.596Z,26.94
2023-05-22T13:45:55.919Z,27.42
2023-05-22T13:49:00.157Z,27.01
2023-05-22T13:52:03.461Z,27.52
2023-05-22T13:55:07.402Z,27.38
2023-05-22T13:58:12.065Z,27.57
2023-05-22T14:01:15.276Z,27.58
2023-05-22T14:04:18.601Z,27.15
2023-05-22T14:07:21.790Z,27.45
2023-05-22T14:10:24.993Z,27.49
2023-05-22T14:13:30.656Z,27.65
2023-05-22T14:16:33.976Z,27.40
2023-05-22T14:19:40.032Z,27.52
2023-05-22T14:22:56.509Z,27.32
2023-05-22T14:26:01.506Z,26.73
2023-05-22T14:29:14.897Z,26.87
2023-05-22T14:32:18.171Z,27.33
2023-05-22T14:35:21.352Z,27.00
2023-05-22T14:38:24.710Z,27.20
2023-05-22T14:41:28.284Z,27.99
2023-05-22T14:44:32.791Z,27.26
2023-05-22T14:47:35.954Z,27.08
2023-05-22T14:50:39.108Z,27.20
2023-05-22T14:53:42.303Z,27.25
2023-05-22T14:56:46.225Z,27.26
2023-05-22T14:59:50.785Z,27.03
2023-05-22T15:02:54.079Z,27.36
2023-05-22T15:05:57.851Z,27.11
2023-05-22T15:09:01.064Z,27.23
2023-05-22T15:12:04.359Z,27.01
2023-05-22T15:15:10.082Z,27.25
2023-05-22T15:18:14.113Z,27.11
2023-05-22T15:21:17.587Z,26.99
2023-05-22T15:24:20.893Z,26.81
2023-05-22T15:27:24.107Z,26.84
2023-05-22T15:34:34.187Z,27.35
2023-05-22T15:37:37.576Z,26.95
2023-05-22T15:40:41.759Z,26.88
2023-05-22T15:43:45.157Z,26.66
2023-05-22T15:46:48.356Z,26.92
2023-05-22T15:49:53.070Z,27.00
2023-05-22T15:52:57.004Z,26.54
2023-05-22T15:56:00.366Z,26.95
2023-05-22T15:59:10.447Z,26.69
2023-05-22T16:02:13.914Z,26.53
2023-05-22T16:05:21.013Z,26.49
2023-05-22T16:08:24.213Z,26.63
2023-05-22T16:11:27.421Z,26.79
2023-05-22T16:14:30.814Z,26.88
2023-05-22T16:17:34.167Z,26.80
2023-05-22T16:20:38.838Z,26.78
2023-05-22T16:23:42.014Z,26.63
2023-05-22T16:26:45.220Z,26.50
2023-05-22T16:29:48.972Z,26.54
2023-05-22T16:32:52.392Z,26.45
2023-05-22T16:35:56.966Z,26.49
2023-05-22T16:39:00.166Z,26.45
2023-05-22T16:42:03.404Z,26.38
2023-05-22T16:45:07.719Z,26.42
2023-05-22T16:48:11.598Z,26.12
2023-05-22T16:51:16.191Z,25.92
2023-05-22T16:54:19.379Z,26.06
2023-05-22T16:57:23.201Z,25.97
2023-05-22T17:00:26.422Z,25.61
2023-05-22T17:03:29.781Z,25.77
2023-05-22T17:06:35.425Z,25.50
2023-05-22T17:09:38.648Z,25.32
2023-05-22T17:12:41.886Z,25.33
2023-05-22T17:15:45.195Z,25.45
2023-05-22T17:18:48.398Z,25.41
2023-05-22T17:21:53.188Z,25.33
2023-05-22T17:24:56.582Z,25.51
2023-05-22T17:27:59.820Z,24.98
2023-05-22T17:31:03.161Z,25.09
2023-05-22T17:34:06.320Z,24.86
2023-05-22T17:37:11.338Z,24.73
2023-05-22T17:40:14.666Z,24.58
2023-05-22T17:43:19.075Z,24.83
2023-05-22T17:46:22.494Z,24.74
2023-05-22T17:49:25.670Z,24.65
2023-05-22T17:52:30.591Z,24.66
2023-05-22T17:55:36.154Z,24.56
2023-05-22T17:58:39.722Z,24.41
2023-05-22T18:01:43.059Z,24.44
2023-05-22T18:04:46.406Z,24.29
2023-05-22T18:07:51.074Z,24.14
2023-05-22T18:10:55.753Z,23.92
2023-05-22T18:13:59.582Z,23.75
2023-05-22T18:17:03.890Z,23.54
2023-05-22T18:20:08.326Z,23.41
2023-05-22T18:23:13.133Z,23.18
2023-05-22T18:26:16.487Z,23.03
2023-05-22T18:29:19.847Z,22.95
2023-05-22T18:32:23.162Z,22.86
2023-05-22T18:35:26.693Z,22.63
2023-05-22T18:38:31.425Z,22.45
2023-05-22T18:41:34.687Z,22.37
2023-05-22T18:44:37.953Z,22.41
2023-05-22T18:47:41.568Z,22.22
2023-05-22T18:50:44.839Z,22.02
2023-05-22T18:53:51.609Z,21.86
2023-05-22T18:56:54.845Z,21.71
2023-05-22T18:59:58.753Z,21.49
2023-05-22T19:03:02.070Z,21.37
2023-05-22T19:06:05.852Z,21.37
2023-05-22T19:09:10.870Z,21.21
2023-05-22T19:12:14.066Z,21.06
2023-05-22T19:15:17.408Z,20.99
2023-05-22T19:18:20.756Z,20.97
2023-05-22T19:21:24.465Z,21.05
2023-05-22T19:24:29.086Z,21.07
2023-05-22T19:27:32.330Z,20.96
2023-05-22T19:30:35.584Z,21.07
2023-05-22T19:33:38.827Z,21.12
2023-05-22T19:36:42.610Z,21.54
2023-05-22T19:39:47.394Z,21.21
2023-05-22T19:42:50.599Z,21.34
2023-05-22T19:45:54.277Z,21.47
2023-05-22T19:48:57.833Z,21.13
2023-05-22T19:52:01.323Z,20.90
2023-05-22T19:55:06.599Z,20.99
2023-05-22T19:58:09.743Z,20.99
2023-05-22T20:01:12.946Z,21.06
2023-05-22T20:04:16.772Z,21.06
2023-05-22T20:07:20.229Z,20.79
2023-05-22T20:10:25.757Z,20.71
2023-05-22T20:13:29.552Z,20.66
2023-05-22T20:16:32.965Z,20.80
2023-05-22T20:19:36.307Z,20.96
2023-05-22T20:22:39.676Z,20.56
2023-05-22T20:25:44.244Z,20.42
2023-05-22T20:28:47.459Z,20.64
2023-05-22T20:31:54.431Z,19.98
2023-05-22T20:34:57.679Z,19.89
2023-05-22T20:38:03.724Z,19.80
2023-05-22T20:41:09.820Z,19.80
2023-05-22T20:44:13.258Z,19.72
2023-05-22T20:47:16.844Z,19.71
2023-05-22T20:50:20.167Z,19.60
2023-05-22T20:53:24.453Z,19.54
2023-05-22T20:56:32.114Z,19.77
2023-05-22T20:59:38.530Z,19.34
2023-05-22T21:02:41.823Z,19.42
2023-05-22T21:05:45.134Z,19.11
2023-05-22T21:08:48.695Z,19.14
2023-05-22T21:11:53.374Z,19.15
2023-05-22T21:14:56.491Z,18.86
2023-05-22T21:18:00.077Z,18.75
2023-05-22T21:21:03.428Z,18.62
2023-05-22T21:24:07.648Z,18.62
2023-05-22T21:27:12.194Z,18.79
2023-05-22T21:30:16.172Z,18.68
2023-05-22T21:34:33.974Z,18.53
2023-05-22T21:37:37.299Z,18.80
2023-05-22T21:40:42.552Z,18.52
2023-05-22T21:43:47.349Z,18.66
2023-05-22T21:46:50.756Z,18.70
2023-05-22T21:49:55.413Z,18.82
2023-05-22T21:52:58.547Z,18.56
2023-05-22T21:56:02.205Z,18.60
2023-05-22T21:59:10.284Z,18.20
2023-05-22T22:02:13.576Z,18.48
2023-05-22T22:05:18.793Z,18.18
2023-05-22T22:08:22.038Z,18.18
2023-05-22T22:11:26.429Z,18.08
2023-05-22T22:14:30.300Z,17.94
2023-05-22T22:17:34.761Z,18.20
2023-05-22T22:20:44.756Z,17.80
2023-05-22T22:23:48.597Z,17.93
2023-05-22T22:26:52.815Z,17.79
2023-05-22T22:29:56.084Z,17.75
2023-05-22T22:32:59.581Z,17.72
2023-05-22T22:36:04.387Z,17.77
2023-05-22T22:39:07.947Z,17.68
2023-05-22T22:42:11.113Z,17.71
2023-05-22T22:45:14.629Z,17.56
2023-05-22T22:48:22.202Z,17.47
2023-05-22T22:51:26.765Z,17.51
2023-05-22T22:54:30.392Z,17.42
2023-05-22T22:57:33.666Z,17.63
2023-05-22T23:00:37.416Z,17.28
2023-05-22T23:03:40.993Z,17.11
2023-05-22T23:06:46.097Z,17.10
2023-05-22T23:09:49.224Z,17.21
2023-05-22T23:12:52.343Z,17.16
2023-05-22T23:15:55.730Z,17.17
2023-05-22T23:18:59.002Z,17.14
2023-05-22T23:22:03.630Z,17.15
2023-05-22T23:25:07.684Z,17.34
2023-05-22T23:28:10.828Z,16.90
2023-05-22T23:31:14.635Z,16.90
2023-05-22T23:34:18.170Z,16.59
2023-05-22T23:37:22.914Z,16.74
2023-05-22T23:40:26.067Z,16.58
2023-05-22T23:43:29.228Z,16.69
2023-05-22T23:46:32.674Z,16.43
2023-05-22T23:49:36.024Z,16.57
2023-05-22T23:52:40.776Z,16.77
2023-05-22T23:55:43.881Z,16.69
2023-05-22T23:58:47.042Z,16.94
